Time;durP1;ratioP1;P1;durP2;ratioP2;P2;SDS_P1;SDS_P2;PMS_P1;PMS_P2;Temp;Humidity;BMP_temperature;BMP_pressure;BME280_temperature;BME280_humidity;BME280_pressure;Samples;Min_cycle;Max_cycle;Signal;HPM_P1;HPM_P2
2022/06/22 00:01:35;;;;;;;4.10;2.03;;;18.20;1.00;;;;;;5074205;28;20937;-77
2022/06/22 00:04:35;;;;;;;1.97;1.73;;;18.20;1.00;;;;;;5074449;28;20466;-75
2022/06/22 00:07:45;;;;;;;2.50;2.07;;;18.10;1.00;;;;;;5059022;28;20424;-76
2022/06/22 00:10:41;;;;;;;8.63;1.60;;;18.10;1.00;;;;;;5080254;28;20458;-76
2022/06/22 00:13:28;;;;;;;3.60;1.93;;;18.10;1.00;;;;;;5078191;28;20401;-75
2022/06/22 00:16:01;;;;;;;2.03;1.73;;;18.00;1.00;;;;;;5074180;28;20396;-76
2022/06/22 00:18:46;;;;;;;5.27;1.73;;;18.00;1.00;;;;;;5072605;28;20739;-75
2022/06/22 00:21:17;;;;;;;6.87;2.03;;;18.00;1.00;;;;;;5070960;28;20455;-75
2022/06/22 00:23:46;;;;;;;1.90;1.70;;;17.90;1.00;;;;;;5073373;28;20419;-75
2022/06/22 00:26:33;;;;;;;3.13;2.23;;;17.90;1.00;;;;;;5068600;28;20427;-75
2022/06/22 00:29:09;;;;;;;2.77;2.20;;;17.80;1.00;;;;;;5054137;28;20444;-77
2022/06/22 00:31:57;;;;;;;3.73;2.00;;;17.80;1.00;;;;;;5069204;28;20506;-75
2022/06/22 00:34:57;;;;;;;2.27;1.90;;;17.70;1.00;;;;;;5073596;28;20433;-76
2022/06/22 00:37:36;;;;;;;3.20;2.40;;;17.70;1.00;;;;;;5073641;28;20768;-75
2022/06/22 00:44:03;;;;;;;1.83;1.70;;;17.50;1.00;;;;;;5077320;28;20507;-76
2022/06/22 00:46:29;;;;;;;6.70;2.00;;;17.50;1.00;;;;;;5076958;28;20421;-76
2022/06/22 00:49:18;;;;;;;2.00;1.73;;;17.40;1.00;;;;;;5067143;28;20475;-76
2022/06/22 00:51:44;;;;;;;3.50;2.10;;;17.40;1.00;;;;;;5087239;28;20861;-76
2022/06/22 00:57:40;;;;;;;4.13;2.03;;;17.30;1.00;;;;;;5053218;28;20806;-79
2022/06/22 01:03:38;;;;;;;2.17;1.97;;;17.20;1.00;;;;;;5069834;28;20773;-79
2022/06/22 01:09:35;;;;;;;2.10;1.90;;;17.10;1.00;;;;;;5072362;28;20460;-76
2022/06/22 01:12:30;;;;;;;2.70;2.00;;;17.00;1.00;;;;;;5077435;28;20433;-76
2022/06/22 01:14:59;;;;;;;6.23;2.00;;;17.00;1.00;;;;;;5092489;28;20798;-76
2022/06/22 01:18:14;;;;;;;4.97;1.70;;;17.00;1.00;;;;;;5086300;28;20380;-76
2022/06/22 01:21:02;;;;;;;5.20;2.03;;;17.00;1.00;;;;;;5035116;28;20471;-75
2022/06/22 01:24:15;;;;;;;2.27;2.07;;;17.00;1.00;;;;;;5053700;28;20434;-76
2022/06/22 01:27:17;;;;;;;1.70;1.60;;;17.00;1.00;;;;;;5048156;28;20393;-76
2022/06/22 01:29:53;;;;;;;2.93;1.83;;;17.00;1.00;;;;;;5035319;28;20785;-76
2022/06/22 01:32:42;;;;;;;2.90;1.90;;;17.00;1.00;;;;;;5046329;28;20422;-76
2022/06/22 01:35:39;;;;;;;4.63;2.00;;;17.00;1.00;;;;;;5034610;28;20422;-76
2022/06/22 01:38:38;;;;;;;2.43;2.10;;;17.00;1.00;;;;;;5035362;28;20785;-76
2022/06/22 01:41:27;;;;;;;2.83;1.93;;;17.00;1.00;;;;;;4976085;28;20565;-76
2022/06/22 01:44:46;;;;;;;3.40;1.87;;;17.00;1.00;;;;;;4976131;28;20386;-76
2022/06/22 01:47:29;;;;;;;3.60;1.80;;;17.00;1.00;;;;;;4915017;29;20439;-76
2022/06/22 01:50:25;;;;;;;1.90;1.80;;;17.00;1.00;;;;;;4917334;29;20810;-76
2022/06/22 01:53:33;;;;;;;2.93;2.10;;;16.90;1.00;;;;;;4917005;29;20438;-75
2022/06/22 01:56:07;;;;;;;1.90;1.80;;;16.90;1.00;;;;;;4935560;29;20428;-76
2022/06/22 01:59:08;;;;;;;2.27;1.90;;;16.90;1.00;;;;;;4956312;29;20474;-76
2022/06/22 02:02:15;;;;;;;1.90;1.70;;;16.80;1.00;;;;;;4955863;29;20441;-76
2022/06/22 02:04:49;;;;;;;6.40;1.90;;;16.80;1.00;;;;;;4953404;29;20568;-76
2022/06/22 02:07:46;;;;;;;3.97;2.00;;;16.80;1.00;;;;;;4955552;29;20472;-76
2022/06/22 02:10:26;;;;;;;2.43;2.23;;;16.80;1.00;;;;;;4956738;29;20926;-79
2022/06/22 02:26:34;;;;;;;2.73;1.70;;;16.70;1.00;;;;;;5092012;28;20372;-76
2022/06/22 02:29:28;;;;;;;5.13;1.70;;;16.70;1.00;;;;;;5056321;28;20369;-76
2022/06/22 02:31:59;;;;;;;1.60;1.50;;;16.70;1.00;;;;;;5060312;28;20515;-76
2022/06/22 02:34:35;;;;;;;2.00;1.50;;;16.80;1.00;;;;;;5083574;28;20707;-76
2022/06/22 02:37:10;;;;;;;3.30;1.90;;;16.80;1.00;;;;;;5083588;28;20421;-76
2022/06/22 02:47:09;;;;;;;2.33;1.60;;;16.90;1.00;;;;;;5057487;28;20413;-80
2022/06/22 02:50:21;;;;;;;4.70;1.80;;;16.90;1.00;;;;;;5065321;28;20410;-80
2022/06/22 02:56:23;;;;;;;2.87;1.47;;;17.00;1.00;;;;;;5065968;28;20458;-76
2022/06/22 02:58:49;;;;;;;1.30;1.20;;;17.10;1.00;;;;;;5069970;28;20410;-76
2022/06/22 03:01:19;;;;;;;2.10;1.57;;;17.10;1.00;;;;;;5063304;28;20429;-76
2022/06/22 03:04:10;;;;;;;2.17;1.60;;;17.10;1.00;;;;;;5058167;28;20823;-76
2022/06/22 03:06:53;;;;;;;2.93;1.40;;;17.10;1.00;;;;;;5022239;28;20417;-76
2022/06/22 03:09:25;;;;;;;4.50;1.43;;;17.20;1.00;;;;;;5033205;28;20477;-76
2022/06/22 03:15:16;;;;;;;1.60;1.40;;;17.20;1.00;;;;;;5033252;28;20967;-80
2022/06/22 03:18:33;;;;;;;2.03;1.43;;;17.20;1.00;;;;;;5013784;28;20465;-80
2022/06/22 03:21:13;;;;;;;3.57;1.93;;;17.20;1.00;;;;;;5019180;28;20427;-80
2022/06/22 03:24:01;;;;;;;5.03;1.83;;;17.30;1.00;;;;;;5032419;28;20465;-80
2022/06/22 03:26:40;;;;;;;4.50;1.50;;;17.30;1.00;;;;;;5032714;28;20403;-76
2022/06/22 03:29:23;;;;;;;1.53;1.30;;;17.40;1.00;;;;;;5032349;28;20417;-75
2022/06/22 03:32:00;;;;;;;3.90;1.50;;;17.30;1.00;;;;;;5032398;28;20440;-76
2022/06/22 03:34:41;;;;;;;1.57;1.47;;;17.40;1.00;;;;;;5023141;28;20634;-76
2022/06/22 03:37:27;;;;;;;2.27;1.70;;;17.40;1.00;;;;;;5033066;28;20402;-76
2022/06/22 03:40:45;;;;;;;3.87;1.57;;;17.50;1.00;;;;;;5032760;28;20818;-76
2022/06/22 03:43:52;;;;;;;2.07;1.93;;;17.50;1.00;;;;;;4992668;28;20498;-76
2022/06/22 03:47:03;;;;;;;4.80;1.60;;;17.60;1.00;;;;;;4994197;28;20464;-76
2022/06/22 03:50:06;;;;;;;3.07;1.87;;;17.60;1.00;;;;;;4987781;28;20400;-77
2022/06/22 03:52:57;;;;;;;2.70;1.60;;;17.60;1.00;;;;;;4979003;28;20438;-75
2022/06/22 03:55:30;;;;;;;6.53;1.77;;;17.70;1.00;;;;;;4995601;28;20400;-74
2022/06/22 03:57:58;;;;;;;1.77;1.67;;;17.70;1.00;;;;;;5001045;28;20422;-74
2022/06/22 04:00:42;;;;;;;2.30;1.60;;;17.80;1.00;;;;;;5003689;28;20423;-74
2022/06/22 04:03:08;;;;;;;1.73;1.53;;;17.90;1.00;;;;;;4990023;28;20454;-75
2022/06/22 04:05:43;;;;;;;2.63;1.67;;;17.90;1.00;;;;;;4999108;28;20898;-74
2022/06/22 04:08:32;;;;;;;2.00;1.80;;;18.00;1.00;;;;;;4992759;28;20422;-74
2022/06/22 04:11:19;;;;;;;6.93;2.00;;;18.00;1.00;;;;;;5004909;28;20525;-73
2022/06/22 04:14:11;;;;;;;6.63;1.90;;;18.10;1.00;;;;;;5000602;28;20441;-73
2022/06/22 04:16:40;;;;;;;3.00;1.87;;;18.20;1.00;;;;;;4941819;29;20437;-73
2022/06/22 04:19:34;;;;;;;1.60;1.50;;;18.20;1.00;;;;;;4947930;28;20429;-73
2022/06/22 04:22:06;;;;;;;2.63;1.70;;;18.30;1.00;;;;;;4943132;29;20440;-73
2022/06/22 04:25:11;;;;;;;2.07;1.60;;;18.40;1.00;;;;;;4950147;29;20437;-73
2022/06/22 04:27:43;;;;;;;2.07;1.70;;;18.50;1.00;;;;;;4934832;29;20454;-74
2022/06/22 04:30:20;;;;;;;2.70;1.57;;;18.60;1.00;;;;;;4935069;29;20410;-75
2022/06/22 04:32:56;;;;;;;2.70;1.60;;;18.60;1.00;;;;;;4945504;29;20401;-75
2022/06/22 04:35:41;;;;;;;2.50;1.83;;;18.60;1.00;;;;;;4937357;29;20432;-75
2022/06/22 04:38:27;;;;;;;5.00;1.97;;;18.70;1.00;;;;;;4953251;29;20394;-75
2022/06/22 04:41:25;;;;;;;2.27;1.63;;;18.70;1.00;;;;;;4952702;29;20843;-74
2022/06/22 04:43:52;;;;;;;2.03;1.73;;;18.80;1.00;;;;;;4940709;29;20409;-75
2022/06/22 04:46:29;;;;;;;4.27;2.23;;;18.80;1.00;;;;;;4953005;28;20421;-74
2022/06/22 04:49:31;;;;;;;1.90;1.53;;;18.80;1.00;;;;;;4953088;29;20425;-74
2022/06/22 04:52:53;;;;;;;5.30;2.17;;;18.90;1.00;;;;;;4896220;29;20435;-80
2022/06/22 04:58:54;;;;;;;6.57;1.70;;;19.00;1.00;;;;;;4974062;28;20479;-83
2022/06/22 05:04:48;;;;;;;61.83;3.60;;;19.30;1.00;;;;;;5027583;28;20516;-83
2022/06/22 05:07:30;;;;;;;2.40;1.50;;;19.50;1.00;;;;;;5017700;28;20936;-83
2022/06/22 05:13:46;;;;;;;2.50;1.70;;;19.80;1.00;;;;;;5028017;28;20525;-80
2022/06/22 05:23:00;;;;;;;1.83;1.73;;;20.20;1.00;;;;;;5014343;28;20501;-80
2022/06/22 05:28:56;;;;;;;3.87;2.00;;;20.30;1.00;;;;;;5075674;28;20454;-80
2022/06/22 05:31:47;;;;;;;7.30;1.53;;;20.40;1.00;;;;;;5081246;28;20406;-76
2022/06/22 05:34:30;;;;;;;2.10;1.90;;;20.40;1.00;;;;;;5061031;28;20388;-76
2022/06/22 05:37:06;;;;;;;1.70;1.60;;;20.50;1.00;;;;;;5068651;28;20974;-77
2022/06/22 05:39:57;;;;;;;2.70;2.20;;;20.70;1.00;;;;;;5073013;28;20485;-77
2022/06/22 05:42:24;;;;;;;3.47;1.70;;;20.90;1.00;;;;;;5066274;28;20509;-76
2022/06/22 05:45:01;;;;;;;2.40;1.50;;;21.00;1.00;;;;;;5075037;28;20461;-75
2022/06/22 05:47:30;;;;;;;12.93;1.77;;;21.20;1.00;;;;;;5064314;28;20436;-75
2022/06/22 05:50:33;;;;;;;1.77;1.40;;;21.30;1.00;;;;;;5067306;28;20442;-75
2022/06/22 05:53:29;;;;;;;2.70;1.50;;;21.50;1.00;;;;;;5068902;28;20441;-78
2022/06/22 05:56:17;;;;;;;3.10;1.80;;;21.70;1.00;;;;;;5074177;28;20792;-69
2022/06/22 06:02:27;;;;;;;10.93;2.00;;;21.90;1.00;;;;;;5070472;28;20477;-77
2022/06/22 06:05:07;;;;;;;3.10;1.90;;;22.00;1.00;;;;;;5074723;28;20773;-77
2022/06/22 06:07:45;;;;;;;1.60;1.50;;;22.10;1.00;;;;;;5073739;28;20419;-77
2022/06/22 06:10:32;;;;;;;2.43;1.73;;;22.20;1.00;;;;;;5061456;28;20428;-77
2022/06/22 06:13:16;;;;;;;6.50;2.10;;;22.30;1.00;;;;;;5078231;28;20490;-69
2022/06/22 06:15:45;;;;;;;2.43;1.90;;;22.40;1.00;;;;;;5074893;28;20432;-69
2022/06/22 06:18:17;;;;;;;4.40;1.70;;;22.40;1.00;;;;;;5074270;28;20497;-69
2022/06/22 06:20:47;;;;;;;1.90;1.60;;;22.50;1.00;;;;;;5075191;28;20564;-69
2022/06/22 06:23:27;;;;;;;3.63;2.00;;;22.50;1.00;;;;;;5075578;28;20474;-69
2022/06/22 06:28:48;;;;;;;3.00;1.80;;;22.50;1.00;;;;;;5070658;28;20498;-70
2022/06/22 06:31:34;;;;;;;8.03;1.67;;;22.60;1.00;;;;;;5070966;28;20494;-70
2022/06/22 06:34:02;;;;;;;1.83;1.60;;;22.60;1.00;;;;;;5063362;28;20424;-70
2022/06/22 06:36:49;;;;;;;2.70;1.90;;;22.70;1.00;;;;;;5073752;28;20432;-70
2022/06/22 06:39:22;;;;;;;2.60;1.80;;;22.70;1.00;;;;;;5070608;28;20460;-69
2022/06/22 06:42:03;;;;;;;2.80;1.73;;;22.70;1.00;;;;;;5075493;28;20606;-69
2022/06/22 06:44:41;;;;;;;3.67;1.80;;;22.70;1.00;;;;;;5075173;28;20510;-70
2022/06/22 06:47:15;;;;;;;2.60;2.03;;;22.70;1.00;;;;;;5069028;28;20436;-70
2022/06/22 06:50:07;;;;;;;6.20;1.97;;;22.80;1.00;;;;;;5054498;28;20432;-70
2022/06/22 06:53:01;;;;;;;5.40;2.00;;;22.90;1.00;;;;;;5072996;28;20429;-70
2022/06/22 06:55:46;;;;;;;4.43;1.83;;;23.00;1.00;;;;;;5074499;28;20425;-69
2022/06/22 06:58:35;;;;;;;5.70;1.80;;;23.10;1.00;;;;;;5068686;28;20424;-70
2022/06/22 07:01:02;;;;;;;2.53;1.80;;;23.30;1.00;;;;;;5073142;28;20956;-70
2022/06/22 07:03:39;;;;;;;9.30;1.90;;;23.20;1.00;;;;;;5074809;28;20994;-69
2022/06/22 07:06:05;;;;;;;2.20;2.00;;;23.30;1.00;;;;;;5073323;28;20965;-69
2022/06/22 07:08:36;;;;;;;6.93;1.67;;;23.40;1.00;;;;;;5074469;28;20424;-69
2022/06/22 07:11:05;;;;;;;3.47;1.97;;;23.30;1.00;;;;;;5070274;28;20638;-69
2022/06/22 07:14:12;;;;;;;3.43;1.63;;;23.30;1.00;;;;;;5075343;28;20447;-77
2022/06/22 07:16:39;;;;;;;9.80;2.53;;;23.40;1.00;;;;;;5033056;28;20947;-76
2022/06/22 07:19:17;;;;;;;11.30;2.10;;;23.40;1.00;;;;;;5032805;28;20415;-76
2022/06/22 07:21:59;;;;;;;8.30;1.87;;;23.30;1.00;;;;;;5030921;28;20482;-76
2022/06/22 07:24:33;;;;;;;15.53;2.10;;;23.40;1.00;;;;;;5043885;28;20522;-76
2022/06/22 07:27:05;;;;;;;6.50;2.37;;;23.40;1.00;;;;;;5031240;28;20420;-77
2022/06/22 07:29:38;;;;;;;5.70;2.00;;;23.50;1.00;;;;;;5023872;28;20501;-76
2022/06/22 07:32:28;;;;;;;10.83;2.40;;;23.60;1.00;;;;;;5032760;28;20441;-77
2022/06/22 07:35:10;;;;;;;6.07;2.00;;;23.70;1.00;;;;;;5046958;28;20472;-76
2022/06/22 07:37:42;;;;;;;8.30;1.67;;;23.80;1.00;;;;;;5036253;28;20452;-76
2022/06/22 07:40:17;;;;;;;7.73;1.70;;;23.90;1.00;;;;;;5034063;28;20935;-76
2022/06/22 07:42:47;;;;;;;4.70;1.60;;;24.00;1.00;;;;;;5032396;28;20615;-75
2022/06/22 07:45:16;;;;;;;5.07;1.50;;;24.10;1.00;;;;;;5038100;28;20441;-76
2022/06/22 07:47:51;;;;;;;6.00;1.80;;;24.20;1.00;;;;;;5031408;28;20491;-77
2022/06/22 07:50:25;;;;;;;3.77;2.20;;;24.30;1.00;;;;;;5030017;28;20530;-76
2022/06/22 07:53:29;;;;;;;3.93;1.63;;;24.30;1.00;;;;;;5047132;28;20431;-81
2022/06/22 07:56:12;;;;;;;2.10;1.67;;;24.40;1.00;;;;;;5002484;28;20424;-81
2022/06/22 07:59:01;;;;;;;5.03;1.90;;;24.50;1.00;;;;;;5007960;28;20435;-80
2022/06/22 08:01:48;;;;;;;2.97;1.73;;;24.60;1.00;;;;;;4992783;28;20469;-79
2022/06/22 08:04:36;;;;;;;2.40;1.60;;;24.60;1.00;;;;;;4987522;28;20446;-77
2022/06/22 08:07:47;;;;;;;2.83;1.60;;;24.80;1.00;;;;;;5012134;28;20544;-75
2022/06/22 08:10:31;;;;;;;3.80;1.90;;;24.80;1.00;;;;;;4977964;28;20798;-75
2022/06/22 08:13:31;;;;;;;1.87;1.60;;;24.90;1.00;;;;;;4985807;28;20977;-76
2022/06/22 08:16:08;;;;;;;10.50;1.73;;;24.90;1.00;;;;;;4986823;28;20847;-75
2022/06/22 08:18:58;;;;;;;4.00;1.80;;;24.90;1.00;;;;;;4986770;28;20434;-75
2022/06/22 08:21:40;;;;;;;3.80;1.60;;;24.90;1.00;;;;;;4979223;28;20470;-75
2022/06/22 08:24:12;;;;;;;3.53;2.03;;;25.00;1.00;;;;;;4986169;28;20427;-75
2022/06/22 08:26:42;;;;;;;3.63;2.10;;;25.00;1.00;;;;;;5011328;28;20437;-75
2022/06/22 08:29:08;;;;;;;9.03;1.77;;;25.10;1.00;;;;;;5049793;28;20987;-70
2022/06/22 08:31:41;;;;;;;2.27;1.87;;;25.30;1.00;;;;;;5031464;28;20496;-69
2022/06/22 08:34:15;;;;;;;3.07;1.40;;;25.50;1.00;;;;;;5048948;28;20486;-69
2022/06/22 08:36:54;;;;;;;2.80;1.40;;;25.70;1.00;;;;;;5050512;28;20447;-69
2022/06/22 08:39:49;;;;;;;4.57;2.13;;;25.80;1.00;;;;;;5047698;28;20587;-69
2022/06/22 08:42:23;;;;;;;2.53;1.70;;;26.00;1.00;;;;;;5051101;28;20459;-69
2022/06/22 08:45:23;;;;;;;4.43;1.80;;;26.20;1.00;;;;;;5035575;28;20469;-70
2022/06/22 08:47:58;;;;;;;4.47;1.97;;;26.30;1.00;;;;;;5055426;28;20512;-71
2022/06/22 08:50:51;;;;;;;3.90;1.70;;;26.40;1.00;;;;;;5073437;28;20438;-71
2022/06/22 08:53:29;;;;;;;7.53;1.80;;;26.50;1.00;;;;;;5073101;28;20530;-71
2022/06/22 08:56:03;;;;;;;5.73;2.00;;;26.70;1.00;;;;;;5070767;28;20427;-77
2022/06/22 09:02:06;;;;;;;3.43;1.83;;;26.90;1.00;;;;;;5058410;28;21295;-80
2022/06/22 09:05:09;;;;;;;18.13;2.00;;;27.10;1.00;;;;;;5071970;28;20425;-80
2022/06/22 09:08:20;;;;;;;4.33;2.37;;;27.30;1.00;;;;;;5083424;28;20442;-80
2022/06/22 09:11:25;;;;;;;5.57;1.80;;;27.40;1.00;;;;;;5076913;28;20626;-80
2022/06/22 09:14:28;;;;;;;4.97;2.00;;;27.60;1.00;;;;;;5023712;28;20468;-80
2022/06/22 09:17:16;;;;;;;3.87;1.87;;;27.70;1.00;;;;;;5030190;28;20433;-80
2022/06/22 09:20:21;;;;;;;4.97;1.90;;;27.90;1.00;;;;;;5030827;28;20399;-80
2022/06/22 09:23:33;;;;;;;3.97;1.57;;;28.10;1.00;;;;;;5034967;28;20462;-80
2022/06/22 09:26:32;;;;;;;3.70;1.80;;;28.40;1.00;;;;;;5025076;28;20443;-81
2022/06/22 09:29:35;;;;;;;2.80;1.70;;;28.60;1.00;;;;;;5048056;28;20434;-80
2022/06/22 09:32:24;;;;;;;2.67;1.90;;;28.80;1.00;;;;;;5040054;28;20527;-79
2022/06/22 09:35:33;;;;;;;4.10;1.97;;;29.10;1.00;;;;;;5042966;28;20445;-79
2022/06/22 09:38:33;;;;;;;9.30;2.20;;;29.30;1.00;;;;;;5047644;28;20433;-79
2022/06/22 09:41:33;;;;;;;2.33;1.57;;;29.40;1.00;;;;;;5035738;28;20465;-79
2022/06/22 09:44:33;;;;;;;5.60;1.87;;;29.50;1.00;;;;;;5034887;28;20427;-79
2022/06/22 09:47:33;;;;;;;2.90;1.70;;;29.60;1.00;;;;;;5035479;28;20420;-80
2022/06/22 09:50:29;;;;;;;25.37;2.30;;;29.60;1.00;;;;;;5040581;28;20812;-79
2022/06/22 09:56:55;;;;;;;5.13;2.10;;;29.80;1.00;;;;;;5069721;28;20481;-79
2022/06/22 09:59:27;;;;;;;2.77;2.17;;;30.00;1.00;;;;;;5056900;28;20773;-79
2022/06/22 10:02:33;;;;;;;5.93;2.03;;;30.10;1.00;;;;;;5073643;28;20468;-80
2022/06/22 10:05:37;;;;;;;2.70;2.10;;;30.20;1.00;;;;;;5068267;28;20421;-81
2022/06/22 10:15:23;;;;;;;2.73;1.80;;;30.40;1.00;;;;;;5059333;28;20424;-80
2022/06/22 10:18:33;;;;;;;4.27;2.40;;;30.50;1.00;;;;;;5057809;28;20899;-80
2022/06/22 10:21:34;;;;;;;4.37;2.30;;;30.50;1.00;;;;;;5074990;28;20448;-81
2022/06/22 10:24:20;;;;;;;9.43;1.97;;;30.50;1.00;;;;;;5056001;28;20397;-80
2022/06/22 10:27:07;;;;;;;2.77;1.93;;;30.50;1.00;;;;;;5064243;28;20409;-80
2022/06/22 10:29:51;;;;;;;3.33;2.30;;;30.60;1.00;;;;;;5075560;28;20904;-80
2022/06/22 10:32:45;;;;;;;2.20;1.87;;;30.60;1.00;;;;;;5075960;28;20427;-79
2022/06/22 10:35:22;;;;;;;8.73;2.00;;;30.50;1.00;;;;;;5072206;28;20444;-79
2022/06/22 10:38:22;;;;;;;4.60;2.13;;;30.60;1.00;;;;;;5075695;28;20420;-78
2022/06/22 10:47:33;;;;;;;3.67;2.13;;;31.10;1.00;;;;;;5074442;28;20470;-79
2022/06/22 10:50:31;;;;;;;3.30;1.90;;;31.40;1.00;;;;;;5056446;28;20403;-79
2022/06/22 11:00:04;;;;;;;2.40;2.07;;;31.80;1.00;;;;;;5055303;28;20398;-78
2022/06/22 11:03:17;;;;;;;13.80;2.87;;;31.90;1.00;;;;;;5055549;28;20500;-79
2022/06/22 11:05:45;;;;;;;3.63;2.10;;;31.80;1.00;;;;;;5055960;28;20471;-79
2022/06/22 11:08:40;;;;;;;4.10;2.17;;;31.90;1.00;;;;;;5076019;28;20417;-79
2022/06/22 11:11:11;;;;;;;3.27;2.40;;;31.80;1.00;;;;;;5059726;28;20405;-79
2022/06/22 11:14:15;;;;;;;4.40;2.37;;;31.90;1.00;;;;;;5075677;28;20966;-79
2022/06/22 11:20:24;;;;;;;11.90;2.20;;;32.10;1.00;;;;;;5055446;28;20456;-80
2022/06/22 11:23:13;;;;;;;4.97;2.10;;;32.40;1.00;;;;;;5060937;28;20465;-81
2022/06/22 11:32:44;;;;;;;3.60;2.20;;;33.00;1.00;;;;;;5074613;28;20436;-80
2022/06/22 11:35:45;;;;;;;2.27;2.00;;;33.00;1.00;;;;;;5074458;28;20790;-80
2022/06/22 11:38:45;;;;;;;2.70;1.80;;;33.20;1.00;;;;;;5074553;28;20442;-80
2022/06/22 11:42:03;;;;;;;2.00;1.90;;;33.40;1.00;;;;;;5074232;28;20468;-80
2022/06/22 11:48:15;;;;;;;2.57;2.00;;;33.60;1.00;;;;;;5074757;28;20378;-81
2022/06/22 11:51:03;;;;;;;2.60;2.00;;;33.60;1.00;;;;;;5071017;28;20888;-80
2022/06/22 11:53:33;;;;;;;6.70;2.40;;;33.50;1.00;;;;;;5054312;28;20387;-80
2022/06/22 11:56:42;;;;;;;3.43;2.07;;;33.30;1.00;;;;;;5061120;28;20405;-81
2022/06/22 11:59:30;;;;;;;1.93;1.83;;;33.20;1.00;;;;;;5032208;28;20510;-77
2022/06/22 12:02:11;;;;;;;2.10;1.73;;;33.10;1.00;;;;;;5032360;28;20545;-74
2022/06/22 12:05:10;;;;;;;3.33;2.03;;;33.00;1.00;;;;;;5043356;28;20430;-74
2022/06/22 12:07:57;;;;;;;2.17;1.97;;;33.10;1.00;;;;;;5031713;28;20501;-75
2022/06/22 12:10:44;;;;;;;2.10;1.77;;;33.10;1.00;;;;;;5037410;28;20431;-74
2022/06/22 12:17:10;;;;;;;2.50;1.70;;;33.30;1.00;;;;;;5011883;28;20971;-74
2022/06/22 12:19:43;;;;;;;4.10;2.37;;;33.30;1.00;;;;;;4998686;28;20417;-74
2022/06/22 12:22:25;;;;;;;10.37;2.30;;;33.00;1.00;;;;;;5011764;28;20496;-74
2022/06/22 12:25:11;;;;;;;8.70;2.43;;;32.70;1.00;;;;;;4998307;28;20503;-74
2022/06/22 12:27:43;;;;;;;6.43;2.20;;;32.60;1.00;;;;;;4998854;28;20417;-74
2022/06/22 12:30:30;;;;;;;3.90;1.80;;;32.50;1.00;;;;;;4985782;28;20504;-74
2022/06/22 12:33:03;;;;;;;4.63;2.10;;;32.60;1.00;;;;;;4995949;28;20496;-74
2022/06/22 12:35:46;;;;;;;3.03;2.00;;;32.60;1.00;;;;;;5001148;28;20418;-74
2022/06/22 12:38:17;;;;;;;5.00;2.00;;;32.60;1.00;;;;;;5011612;28;20427;-74
2022/06/22 12:40:48;;;;;;;3.23;2.13;;;32.70;1.00;;;;;;5011413;28;20567;-77
2022/06/22 12:43:26;;;;;;;11.47;2.20;;;32.90;1.00;;;;;;5011623;28;20420;-76
2022/06/22 12:45:53;;;;;;;3.90;2.10;;;33.00;1.00;;;;;;5007537;28;20427;-75
2022/06/22 12:48:43;;;;;;;3.27;1.90;;;33.30;1.00;;;;;;5012044;28;20483;-75
2022/06/22 12:51:18;;;;;;;2.27;1.90;;;33.40;1.00;;;;;;5004134;28;20442;-76
2022/06/22 12:53:48;;;;;;;4.17;1.70;;;33.60;1.00;;;;;;5036553;28;20429;-75
2022/06/22 12:57:00;;;;;;;2.90;1.90;;;33.60;1.00;;;;;;5073074;28;20425;-75
2022/06/22 12:59:39;;;;;;;5.30;1.83;;;33.50;1.00;;;;;;5031828;28;20552;-75
2022/06/22 13:02:20;;;;;;;5.07;1.60;;;33.60;1.00;;;;;;5032047;28;20466;-77
2022/06/22 13:04:49;;;;;;;2.60;2.20;;;33.70;1.00;;;;;;5029354;28;20449;-75
2022/06/22 13:07:19;;;;;;;2.40;2.20;;;33.80;1.00;;;;;;5035173;28;20439;-77
2022/06/22 13:10:03;;;;;;;5.73;2.00;;;34.10;1.00;;;;;;5036789;28;20945;-79
2022/06/22 13:12:40;;;;;;;4.10;2.40;;;34.30;1.00;;;;;;5035295;28;20442;-79
2022/06/22 13:15:36;;;;;;;5.53;2.17;;;34.40;1.00;;;;;;5032736;28;20529;-78
2022/06/22 13:18:46;;;;;;;3.47;1.90;;;34.40;1.00;;;;;;5034767;28;20419;-75
2022/06/22 13:21:30;;;;;;;4.87;2.00;;;34.30;1.00;;;;;;4991635;28;20465;-76
2022/06/22 13:24:23;;;;;;;3.60;1.90;;;34.30;1.00;;;;;;4994081;28;20444;-76
2022/06/22 13:27:02;;;;;;;2.97;2.10;;;34.20;1.00;;;;;;4995623;28;20420;-76
2022/06/22 13:29:43;;;;;;;2.27;2.10;;;34.10;1.00;;;;;;5012327;28;20447;-76
2022/06/22 13:32:13;;;;;;;2.17;2.00;;;33.80;1.00;;;;;;5015524;28;20467;-77
2022/06/22 13:34:45;;;;;;;2.87;2.40;;;33.70;1.00;;;;;;5004253;28;20426;-78
2022/06/22 13:38:03;;;;;;;3.17;2.07;;;33.80;1.00;;;;;;5035397;28;20399;-78
2022/06/22 13:40:31;;;;;;;2.87;2.33;;;33.60;1.00;;;;;;5041130;28;20530;-78
2022/06/22 13:43:27;;;;;;;6.73;2.20;;;33.50;1.00;;;;;;5054742;28;20504;-78
2022/06/22 13:46:06;;;;;;;5.00;2.50;;;33.40;1.00;;;;;;5054232;28;20410;-78
2022/06/22 13:48:58;;;;;;;2.90;2.50;;;33.40;1.00;;;;;;5053943;28;21009;-76
2022/06/22 13:51:45;;;;;;;3.00;2.17;;;33.20;1.00;;;;;;5053728;28;20418;-76
2022/06/22 13:54:29;;;;;;;2.73;2.37;;;33.10;1.00;;;;;;5045051;28;20445;-76
2022/06/22 13:57:05;;;;;;;3.30;2.53;;;33.00;1.00;;;;;;5054197;28;20912;-76
2022/06/22 13:59:43;;;;;;;10.93;3.20;;;32.90;1.00;;;;;;5075716;28;20539;-76
2022/06/22 14:02:20;;;;;;;4.50;2.50;;;32.90;1.00;;;;;;5075621;28;20464;-76
2022/06/22 14:05:00;;;;;;;2.60;2.20;;;33.10;1.00;;;;;;5075904;28;20419;-76
2022/06/22 14:07:34;;;;;;;2.50;2.30;;;33.20;1.00;;;;;;5075625;28;20455;-77
2022/06/22 14:10:11;;;;;;;3.00;2.60;;;33.40;1.00;;;;;;5075466;28;20416;-77
2022/06/22 14:12:52;;;;;;;3.40;2.40;;;33.60;1.00;;;;;;5063204;28;20443;-77
2022/06/22 14:15:21;;;;;;;2.70;2.40;;;33.70;1.00;;;;;;5062822;28;20416;-76
2022/06/22 14:17:56;;;;;;;7.90;2.63;;;33.70;1.00;;;;;;5075691;28;20965;-75
2022/06/22 14:20:43;;;;;;;3.80;2.37;;;33.50;1.00;;;;;;5074935;28;20486;-76
2022/06/22 14:23:17;;;;;;;8.90;2.60;;;33.30;1.00;;;;;;5074028;28;20430;-76
2022/06/22 14:26:04;;;;;;;10.00;2.40;;;33.20;1.00;;;;;;5074952;28;20417;-86
2022/06/22 14:28:45;;;;;;;8.03;2.70;;;32.70;1.00;;;;;;5075396;28;20496;-75
2022/06/22 14:31:22;;;;;;;5.93;3.10;;;32.70;1.00;;;;;;5075149;28;20451;-76
2022/06/22 14:34:20;;;;;;;5.97;2.70;;;32.40;1.00;;;;;;5075198;28;20474;-84
2022/06/22 14:36:51;;;;;;;5.23;2.33;;;32.00;1.00;;;;;;5075138;28;20416;-76
2022/06/22 14:39:36;;;;;;;5.37;2.40;;;32.20;1.00;;;;;;5074990;28;20401;-76
2022/06/22 14:42:23;;;;;;;4.20;2.83;;;31.90;1.00;;;;;;5067652;28;20496;-75
2022/06/22 14:45:10;;;;;;;6.83;2.70;;;31.80;1.00;;;;;;5073386;28;20418;-75
2022/06/22 14:48:03;;;;;;;3.70;2.40;;;31.80;1.00;;;;;;5075656;28;20406;-75
2022/06/22 14:50:51;;;;;;;4.90;2.40;;;31.60;1.00;;;;;;5079170;28;20420;-74
2022/06/22 14:53:47;;;;;;;3.13;2.83;;;31.30;1.00;;;;;;5081652;28;20450;-74
2022/06/22 14:56:24;;;;;;;12.50;2.87;;;31.40;1.00;;;;;;5075377;28;20413;-74
2022/06/22 14:59:02;;;;;;;4.03;2.50;;;31.30;1.00;;;;;;5089131;28;20467;-74
2022/06/22 15:01:56;;;;;;;7.00;2.60;;;31.40;1.00;;;;;;5068766;28;20518;-74
2022/06/22 15:04:45;;;;;;;11.70;3.07;;;31.40;1.00;;;;;;5066645;28;20417;-77
2022/06/22 15:07:52;;;;;;;4.23;2.97;;;31.50;1.00;;;;;;5068077;28;20426;-76
2022/06/22 15:10:30;;;;;;;10.40;2.97;;;31.30;1.00;;;;;;5067494;28;20485;-76
2022/06/22 15:13:19;;;;;;;5.27;3.23;;;30.70;1.00;;;;;;5086955;28;20450;-76
2022/06/22 15:15:50;;;;;;;9.17;3.00;;;31.10;1.00;;;;;;5082893;28;20796;-76
2022/06/22 15:18:47;;;;;;;7.20;2.93;;;31.20;1.00;;;;;;5062075;28;20413;-76
2022/06/22 15:21:21;;;;;;;15.43;3.20;;;31.30;1.00;;;;;;5061341;28;20458;-77
2022/06/22 15:24:25;;;;;;;6.30;3.23;;;31.50;1.00;;;;;;5072451;28;20454;-77
2022/06/22 15:27:09;;;;;;;3.83;2.97;;;31.60;1.00;;;;;;5073936;28;20871;-77
2022/06/22 15:29:48;;;;;;;10.20;3.70;;;31.50;1.00;;;;;;5088115;28;20467;-78
2022/06/22 15:32:17;;;;;;;9.30;3.87;;;31.30;1.00;;;;;;5074941;28;20421;-76
2022/06/22 15:34:58;;;;;;;8.23;3.97;;;31.10;1.00;;;;;;5061856;28;20416;-76
2022/06/22 15:37:57;;;;;;;19.33;4.97;;;30.70;1.00;;;;;;5076784;28;20463;-76
2022/06/22 15:40:49;;;;;;;5.67;4.53;;;30.60;1.00;;;;;;5081227;28;20405;-76
2022/06/22 15:43:30;;;;;;;7.60;4.07;;;30.50;1.00;;;;;;5061985;28;20486;-76
2022/06/22 15:46:14;;;;;;;6.37;4.10;;;30.40;1.00;;;;;;5060950;28;20887;-76
2022/06/22 15:48:46;;;;;;;7.97;4.00;;;30.20;1.00;;;;;;5074772;28;20455;-73
2022/06/22 15:51:30;;;;;;;11.67;5.13;;;29.90;1.00;;;;;;5074181;28;20416;-73
2022/06/22 15:54:15;;;;;;;10.30;4.43;;;29.80;1.00;;;;;;5065876;28;20453;-74
2022/06/22 15:57:14;;;;;;;9.70;4.00;;;30.50;1.00;;;;;;5079930;28;20889;-75
2022/06/22 16:00:15;;;;;;;14.47;4.13;;;31.80;1.00;;;;;;5066644;28;20434;-74
2022/06/22 16:02:50;;;;;;;9.83;3.87;;;32.60;1.00;;;;;;5064651;28;20545;-73
2022/06/22 16:05:28;;;;;;;12.50;4.00;;;32.90;1.00;;;;;;5069177;28;20564;-78
2022/06/22 16:08:15;;;;;;;7.57;3.40;;;33.50;1.00;;;;;;5067350;28;20429;-78
2022/06/22 16:14:10;;;;;;;17.47;3.70;;;35.40;1.00;;;;;;5086477;28;20436;-78
2022/06/22 16:16:51;;;;;;;18.77;3.70;;;37.10;1.00;;;;;;5069948;28;20768;-78
2022/06/22 16:19:39;;;;;;;18.30;3.50;;;38.50;1.00;;;;;;5073751;28;20410;-74
2022/06/22 16:22:10;;;;;;;7.73;3.33;;;38.70;1.00;;;;;;5083534;28;20459;-74
2022/06/22 16:24:44;;;;;;;20.20;3.27;;;39.40;1.00;;;;;;5071154;28;20456;-74